sensor_id;sensor_type;location;lat;lon;timestamp;temperature;humidity
30300;DHT22;17110;52.602;12.998;2024-03-29T00:03:37;8.70;99.90
30300;DHT22;17110;52.602;12.998;2024-03-29T00:08:38;8.60;99.90
30300;DHT22;17110;52.602;12.998;2024-03-29T00:13:40;8.70;99.90
30300;DHT22;17110;52.602;12.998;2024-03-29T00:18:40;8.70;99.90
30300;DHT22;17110;52.602;12.998;2024-03-29T00:23:41;8.70;99.90
30300;DHT22;17110;52.602;12.998;2024-03-29T00:28:43;8.70;99.90
30300;DHT22;17110;52.602;12.998;2024-03-29T00:33:44;8.70;99.90
30300;DHT22;17110;52.602;12.998;2024-03-29T00:38:44;8.70;99.90
30300;DHT22;17110;52.602;12.998;2024-03-29T00:43:46;8.80;99.90
30300;DHT22;17110;52.602;12.998;2024-03-29T00:48:47;8.70;99.90
30300;DHT22;17110;52.602;12.998;2024-03-29T00:53:47;8.70;99.90
30300;DHT22;17110;52.602;12.998;2024-03-29T00:58:49;8.60;99.90
30300;DHT22;17110;52.602;12.998;2024-03-29T01:03:50;8.50;99.90
30300;DHT22;17110;52.602;12.998;2024-03-29T01:08:51;8.30;99.90
30300;DHT22;17110;52.602;12.998;2024-03-29T01:13:53;8.10;99.90
30300;DHT22;17110;52.602;12.998;2024-03-29T01:18:54;8.00;99.90
30300;DHT22;17110;52.602;12.998;2024-03-29T01:23:54;7.80;99.90
30300;DHT22;17110;52.602;12.998;2024-03-29T01:28:56;7.90;99.90
30300;DHT22;17110;52.602;12.998;2024-03-29T01:33:57;7.80;99.90
30300;DHT22;17110;52.602;12.998;2024-03-29T01:38:58;7.80;99.90
30300;DHT22;17110;52.602;12.998;2024-03-29T01:44:00;7.60;99.90
30300;DHT22;17110;52.602;12.998;2024-03-29T01:49:01;7.60;99.90
30300;DHT22;17110;52.602;12.998;2024-03-29T01:54:02;7.50;99.90
30300;DHT22;17110;52.602;12.998;2024-03-29T01:59:04;7.40;99.90
30300;DHT22;17110;52.602;12.998;2024-03-29T02:04:05;7.30;99.90
30300;DHT22;17110;52.602;12.998;2024-03-29T02:09:06;7.40;99.90
30300;DHT22;17110;52.602;12.998;2024-03-29T02:14:08;7.40;99.90
30300;DHT22;17110;52.602;12.998;2024-03-29T02:19:08;7.30;99.90
30300;DHT22;17110;52.602;12.998;2024-03-29T02:24:12;7.30;99.90
30300;DHT22;17110;52.602;12.998;2024-03-29T02:29:13;7.20;99.90
30300;DHT22;17110;52.602;12.998;2024-03-29T02:34:14;7.20;99.90
30300;DHT22;17110;52.602;12.998;2024-03-29T02:39:16;7.10;99.90
30300;DHT22;17110;52.602;12.998;2024-03-29T02:44:17;7.00;99.90
30300;DHT22;17110;52.602;12.998;2024-03-29T02:49:17;7.00;99.90
30300;DHT22;17110;52.602;12.998;2024-03-29T02:54:19;7.00;99.90
30300;DHT22;17110;52.602;12.998;2024-03-29T02:59:20;7.10;99.90
30300;DHT22;17110;52.602;12.998;2024-03-29T03:04:20;7.00;99.90
30300;DHT22;17110;52.602;12.998;2024-03-29T03:09:22;7.00;99.90
30300;DHT22;17110;52.602;12.998;2024-03-29T03:14:23;6.90;99.90
30300;DHT22;17110;52.602;12.998;2024-03-29T03:19:24;6.80;99.90
30300;DHT22;17110;52.602;12.998;2024-03-29T03:24:25;6.80;99.90
30300;DHT22;17110;52.602;12.998;2024-03-29T03:29:26;6.80;99.90
30300;DHT22;17110;52.602;12.998;2024-03-29T03:34:27;6.80;99.90
30300;DHT22;17110;52.602;12.998;2024-03-29T03:39:29;6.70;99.90
30300;DHT22;17110;52.602;12.998;2024-03-29T03:44:30;6.80;99.90
30300;DHT22;17110;52.602;12.998;2024-03-29T03:49:30;6.70;99.90
30300;DHT22;17110;52.602;12.998;2024-03-29T03:54:32;6.60;99.90
30300;DHT22;17110;52.602;12.998;2024-03-29T03:59:33;6.40;99.90
30300;DHT22;17110;52.602;12.998;2024-03-29T04:04:34;6.10;99.90
30300;DHT22;17110;52.602;12.998;2024-03-29T04:09:35;6.00;99.90
30300;DHT22;17110;52.602;12.998;2024-03-29T04:14:36;5.80;99.90
30300;DHT22;17110;52.602;12.998;2024-03-29T04:19:37;5.70;99.90
30300;DHT22;17110;52.602;12.998;2024-03-29T04:24:39;5.80;99.90
30300;DHT22;17110;52.602;12.998;2024-03-29T04:29:39;5.60;99.90
30300;DHT22;17110;52.602;12.998;2024-03-29T04:34:40;5.50;99.90
30300;DHT22;17110;52.602;12.998;2024-03-29T04:39:42;5.40;99.90
30300;DHT22;17110;52.602;12.998;2024-03-29T04:44:43;5.40;99.90
30300;DHT22;17110;52.602;12.998;2024-03-29T04:49:44;5.40;99.90
30300;DHT22;17110;52.602;12.998;2024-03-29T04:54:45;5.50;99.90
30300;DHT22;17110;52.602;12.998;2024-03-29T04:59:46;5.50;99.90
30300;DHT22;17110;52.602;12.998;2024-03-29T05:04:47;5.60;99.90
30300;DHT22;17110;52.602;12.998;2024-03-29T05:09:49;5.60;99.90
30300;DHT22;17110;52.602;12.998;2024-03-29T05:14:49;5.70;99.90
30300;DHT22;17110;52.602;12.998;2024-03-29T05:19:50;5.80;99.90
30300;DHT22;17110;52.602;12.998;2024-03-29T05:24:54;5.90;99.90
30300;DHT22;17110;52.602;12.998;2024-03-29T05:29:54;6.00;99.90
30300;DHT22;17110;52.602;12.998;2024-03-29T05:34:55;6.10;99.90
30300;DHT22;17110;52.602;12.998;2024-03-29T05:39:57;6.20;99.90
30300;DHT22;17110;52.602;12.998;2024-03-29T05:44:57;6.20;99.90
30300;DHT22;17110;52.602;12.998;2024-03-29T05:49:58;6.30;99.90
30300;DHT22;17110;52.602;12.998;2024-03-29T05:55:00;6.30;99.90
30300;DHT22;17110;52.602;12.998;2024-03-29T06:00:01;6.50;99.90
30300;DHT22;17110;52.602;12.998;2024-03-29T06:05:01;6.60;99.90
30300;DHT22;17110;52.602;12.998;2024-03-29T06:10:04;6.70;99.90
30300;DHT22;17110;52.602;12.998;2024-03-29T06:15:06;6.90;99.90
30300;DHT22;17110;52.602;12.998;2024-03-29T06:20:07;7.00;99.90
30300;DHT22;17110;52.602;12.998;2024-03-29T06:25:09;7.20;99.90
30300;DHT22;17110;52.602;12.998;2024-03-29T06:30:10;7.40;99.90
30300;DHT22;17110;52.602;12.998;2024-03-29T06:35:11;7.50;99.90
30300;DHT22;17110;52.602;12.998;2024-03-29T06:40:13;7.80;99.90
30300;DHT22;17110;52.602;12.998;2024-03-29T06:45:14;8.00;99.90
30300;DHT22;17110;52.602;12.998;2024-03-29T06:50:15;8.10;99.90
30300;DHT22;17110;52.602;12.998;2024-03-29T06:55:17;8.20;99.90
30300;DHT22;17110;52.602;12.998;2024-03-29T07:00:18;8.50;99.90
30300;DHT22;17110;52.602;12.998;2024-03-29T07:05:18;8.60;99.90
30300;DHT22;17110;52.602;12.998;2024-03-29T07:10:20;8.80;99.90
30300;DHT22;17110;52.602;12.998;2024-03-29T07:15:21;8.90;99.90
30300;DHT22;17110;52.602;12.998;2024-03-29T07:20:22;8.90;99.90
30300;DHT22;17110;52.602;12.998;2024-03-29T07:25:24;9.00;99.90
30300;DHT22;17110;52.602;12.998;2024-03-29T07:30:24;9.10;99.90
30300;DHT22;17110;52.602;12.998;2024-03-29T07:35:25;9.10;99.90
30300;DHT22;17110;52.602;12.998;2024-03-29T07:40:27;9.40;99.90
30300;DHT22;17110;52.602;12.998;2024-03-29T07:45:27;9.40;99.90
30300;DHT22;17110;52.602;12.998;2024-03-29T07:50:29;9.50;99.90
30300;DHT22;17110;52.602;12.998;2024-03-29T07:55:30;9.50;99.90
30300;DHT22;17110;52.602;12.998;2024-03-29T08:00:32;9.70;99.90
30300;DHT22;17110;52.602;12.998;2024-03-29T08:05:33;9.80;99.90
30300;DHT22;17110;52.602;12.998;2024-03-29T08:10:35;9.80;99.90
30300;DHT22;17110;52.602;12.998;2024-03-29T08:15:35;9.70;99.90
30300;DHT22;17110;52.602;12.998;2024-03-29T08:20:36;9.70;99.90
30300;DHT22;17110;52.602;12.998;2024-03-29T08:25:38;9.80;99.90
30300;DHT22;17110;52.602;12.998;2024-03-29T08:30:39;9.90;99.90
30300;DHT22;17110;52.602;12.998;2024-03-29T08:35:39;10.10;99.90
30300;DHT22;17110;52.602;12.998;2024-03-29T08:40:41;10.30;99.90
30300;DHT22;17110;52.602;12.998;2024-03-29T08:45:42;10.70;99.90
30300;DHT22;17110;52.602;12.998;2024-03-29T08:50:42;11.10;99.90
30300;DHT22;17110;52.602;12.998;2024-03-29T08:55:46;11.30;99.90
30300;DHT22;17110;52.602;12.998;2024-03-29T09:00:53;11.40;99.90
30300;DHT22;17110;52.602;12.998;2024-03-29T09:05:53;11.60;99.90
30300;DHT22;17110;52.602;12.998;2024-03-29T09:10:55;11.70;99.90
30300;DHT22;17110;52.602;12.998;2024-03-29T09:15:56;12.00;99.90
30300;DHT22;17110;52.602;12.998;2024-03-29T09:20:57;12.10;99.90
30300;DHT22;17110;52.602;12.998;2024-03-29T09:25:59;12.40;99.90
30300;DHT22;17110;52.602;12.998;2024-03-29T09:31:00;12.60;99.90
30300;DHT22;17110;52.602;12.998;2024-03-29T09:36:00;12.60;99.90
30300;DHT22;17110;52.602;12.998;2024-03-29T09:41:10;12.60;99.90
30300;DHT22;17110;52.602;12.998;2024-03-29T09:46:12;12.70;99.90
30300;DHT22;17110;52.602;12.998;2024-03-29T09:51:13;12.60;99.90
30300;DHT22;17110;52.602;12.998;2024-03-29T09:56:15;12.60;99.90
30300;DHT22;17110;52.602;12.998;2024-03-29T10:01:15;12.40;99.90
30300;DHT22;17110;52.602;12.998;2024-03-29T10:06:17;12.30;99.90
30300;DHT22;17110;52.602;12.998;2024-03-29T10:11:19;12.30;99.90
30300;DHT22;17110;52.602;12.998;2024-03-29T10:16:20;12.20;99.90
30300;DHT22;17110;52.602;12.998;2024-03-29T10:21:25;11.90;99.90
30300;DHT22;17110;52.602;12.998;2024-03-29T10:26:27;12.00;99.90
30300;DHT22;17110;52.602;12.998;2024-03-29T10:31:27;11.90;99.90
30300;DHT22;17110;52.602;12.998;2024-03-29T10:36:30;11.90;99.90
30300;DHT22;17110;52.602;12.998;2024-03-29T10:41:32;11.80;99.90
30300;DHT22;17110;52.602;12.998;2024-03-29T10:46:32;12.10;99.90
30300;DHT22;17110;52.602;12.998;2024-03-29T10:51:34;12.10;99.90
30300;DHT22;17110;52.602;12.998;2024-03-29T10:56:36;11.90;99.90
30300;DHT22;17110;52.602;12.998;2024-03-29T11:01:39;11.60;99.90
30300;DHT22;17110;52.602;12.998;2024-03-29T11:06:42;11.50;99.90
30300;DHT22;17110;52.602;12.998;2024-03-29T11:11:48;11.40;99.90
30300;DHT22;17110;52.602;12.998;2024-03-29T11:16:50;11.30;99.90
30300;DHT22;17110;52.602;12.998;2024-03-29T11:21:52;11.10;99.90
30300;DHT22;17110;52.602;12.998;2024-03-29T11:26:54;11.30;99.90
30300;DHT22;17110;52.602;12.998;2024-03-29T11:31:58;11.50;99.90
30300;DHT22;17110;52.602;12.998;2024-03-29T11:37:06;11.90;99.90
30300;DHT22;17110;52.602;12.998;2024-03-29T11:42:08;11.90;99.90
30300;DHT22;17110;52.602;12.998;2024-03-29T11:47:09;11.70;99.90
30300;DHT22;17110;52.602;12.998;2024-03-29T11:52:11;11.80;99.90
30300;DHT22;17110;52.602;12.998;2024-03-29T11:57:13;11.80;99.90
30300;DHT22;17110;52.602;12.998;2024-03-29T12:02:14;11.90;99.90
30300;DHT22;17110;52.602;12.998;2024-03-29T12:07:14;12.10;99.90
30300;DHT22;17110;52.602;12.998;2024-03-29T12:12:18;12.40;99.90
30300;DHT22;17110;52.602;12.998;2024-03-29T12:17:18;12.30;99.90
30300;DHT22;17110;52.602;12.998;2024-03-29T12:22:19;12.40;99.90
30300;DHT22;17110;52.602;12.998;2024-03-29T12:27:21;12.50;99.90
30300;DHT22;17110;52.602;12.998;2024-03-29T12:32:22;12.70;99.90
30300;DHT22;17110;52.602;12.998;2024-03-29T12:37:23;12.60;99.90
30300;DHT22;17110;52.602;12.998;2024-03-29T12:42:25;12.70;99.90
30300;DHT22;17110;52.602;12.998;2024-03-29T12:47:25;12.90;99.90
30300;DHT22;17110;52.602;12.998;2024-03-29T12:52:26;13.10;99.90
30300;DHT22;17110;52.602;12.998;2024-03-29T12:57:28;13.30;99.90
30300;DHT22;17110;52.602;12.998;2024-03-29T13:02:28;13.30;99.90
30300;DHT22;17110;52.602;12.998;2024-03-29T13:07:29;13.10;99.90
30300;DHT22;17110;52.602;12.998;2024-03-29T13:12:31;13.10;99.90
30300;DHT22;17110;52.602;12.998;2024-03-29T13:17:32;13.00;99.90
30300;DHT22;17110;52.602;12.998;2024-03-29T13:22:33;13.20;99.90
30300;DHT22;17110;52.602;12.998;2024-03-29T13:27:35;13.40;99.90
30300;DHT22;17110;52.602;12.998;2024-03-29T13:32:36;13.70;99.90
30300;DHT22;17110;52.602;12.998;2024-03-29T13:37:38;13.90;99.90
30300;DHT22;17110;52.602;12.998;2024-03-29T13:42:40;14.20;99.90
30300;DHT22;17110;52.602;12.998;2024-03-29T13:47:43;14.30;99.90
30300;DHT22;17110;52.602;12.998;2024-03-29T13:52:44;14.50;99.90
30300;DHT22;17110;52.602;12.998;2024-03-29T13:57:46;14.80;99.90
30300;DHT22;17110;52.602;12.998;2024-03-29T14:02:46;14.80;99.90
30300;DHT22;17110;52.602;12.998;2024-03-29T14:07:47;15.00;99.90
30300;DHT22;17110;52.602;12.998;2024-03-29T14:12:49;15.00;99.90
30300;DHT22;17110;52.602;12.998;2024-03-29T14:17:49;15.10;99.90
30300;DHT22;17110;52.602;12.998;2024-03-29T14:22:50;15.30;99.90
30300;DHT22;17110;52.602;12.998;2024-03-29T14:27:52;15.40;99.90
30300;DHT22;17110;52.602;12.998;2024-03-29T14:32:53;15.50;99.90
30300;DHT22;17110;52.602;12.998;2024-03-29T14:37:53;15.40;99.90
30300;DHT22;17110;52.602;12.998;2024-03-29T14:42:55;15.40;99.90
30300;DHT22;17110;52.602;12.998;2024-03-29T14:47:56;15.40;99.90
30300;DHT22;17110;52.602;12.998;2024-03-29T14:52:56;15.30;99.90
30300;DHT22;17110;52.602;12.998;2024-03-29T14:57:58;15.30;99.90
30300;DHT22;17110;52.602;12.998;2024-03-29T15:02:59;15.10;99.90
30300;DHT22;17110;52.602;12.998;2024-03-29T15:08:00;14.90;99.90
30300;DHT22;17110;52.602;12.998;2024-03-29T15:13:01;14.90;99.90
30300;DHT22;17110;52.602;12.998;2024-03-29T15:18:02;14.90;99.90
30300;DHT22;17110;52.602;12.998;2024-03-29T15:23:03;15.00;99.90
30300;DHT22;17110;52.602;12.998;2024-03-29T15:28:05;15.00;99.90
30300;DHT22;17110;52.602;12.998;2024-03-29T15:33:06;15.10;99.90
30300;DHT22;17110;52.602;12.998;2024-03-29T15:38:07;15.10;99.90
30300;DHT22;17110;52.602;12.998;2024-03-29T15:43:09;15.10;99.90
30300;DHT22;17110;52.602;12.998;2024-03-29T15:48:09;15.00;99.90
30300;DHT22;17110;52.602;12.998;2024-03-29T15:53:10;15.00;99.90
30300;DHT22;17110;52.602;12.998;2024-03-29T15:58:12;14.90;99.90
30300;DHT22;17110;52.602;12.998;2024-03-29T16:03:15;14.80;99.90
30300;DHT22;17110;52.602;12.998;2024-03-29T16:08:16;14.80;99.90
30300;DHT22;17110;52.602;12.998;2024-03-29T16:13:18;14.80;99.90
30300;DHT22;17110;52.602;12.998;2024-03-29T16:18:18;14.90;99.90
30300;DHT22;17110;52.602;12.998;2024-03-29T16:23:19;14.80;99.90
30300;DHT22;17110;52.602;12.998;2024-03-29T16:28:21;14.80;99.90
30300;DHT22;17110;52.602;12.998;2024-03-29T16:33:22;14.80;99.90
30300;DHT22;17110;52.602;12.998;2024-03-29T16:38:22;14.80;99.90
30300;DHT22;17110;52.602;12.998;2024-03-29T16:43:24;14.70;99.90
30300;DHT22;17110;52.602;12.998;2024-03-29T16:48:25;14.50;99.90
30300;DHT22;17110;52.602;12.998;2024-03-29T16:53:26;14.40;99.90
30300;DHT22;17110;52.602;12.998;2024-03-29T16:58:27;14.40;99.90
30300;DHT22;17110;52.602;12.998;2024-03-29T17:03:28;14.30;99.90
30300;DHT22;17110;52.602;12.998;2024-03-29T17:08:29;14.10;99.90
30300;DHT22;17110;52.602;12.998;2024-03-29T17:13:31;14.00;99.90
30300;DHT22;17110;52.602;12.998;2024-03-29T17:18:31;14.00;99.90
30300;DHT22;17110;52.602;12.998;2024-03-29T17:23:32;13.90;99.90
30300;DHT22;17110;52.602;12.998;2024-03-29T17:28:34;13.70;99.90
30300;DHT22;17110;52.602;12.998;2024-03-29T17:33:34;13.60;99.90
30300;DHT22;17110;52.602;12.998;2024-03-29T17:38:35;13.50;99.90
30300;DHT22;17110;52.602;12.998;2024-03-29T17:43:37;13.30;99.90
30300;DHT22;17110;52.602;12.998;2024-03-29T17:48:38;13.20;99.90
30300;DHT22;17110;52.602;12.998;2024-03-29T17:53:38;13.20;99.90
30300;DHT22;17110;52.602;12.998;2024-03-29T17:58:40;13.10;99.90
30300;DHT22;17110;52.602;12.998;2024-03-29T18:03:41;13.10;99.90
30300;DHT22;17110;52.602;12.998;2024-03-29T18:08:43;13.10;99.90
30300;DHT22;17110;52.602;12.998;2024-03-29T18:13:45;13.00;99.90
30300;DHT22;17110;52.602;12.998;2024-03-29T18:18:46;12.90;99.90
30300;DHT22;17110;52.602;12.998;2024-03-29T18:23:47;12.90;99.90
30300;DHT22;17110;52.602;12.998;2024-03-29T18:28:49;12.80;99.90
30300;DHT22;17110;52.602;12.998;2024-03-29T18:33:49;12.90;99.90
30300;DHT22;17110;52.602;12.998;2024-03-29T18:38:50;12.80;99.90
30300;DHT22;17110;52.602;12.998;2024-03-29T18:43:52;12.70;99.90
30300;DHT22;17110;52.602;12.998;2024-03-29T18:48:53;12.80;99.90
30300;DHT22;17110;52.602;12.998;2024-03-29T18:53:53;12.70;99.90
30300;DHT22;17110;52.602;12.998;2024-03-29T18:58:55;12.80;99.90
30300;DHT22;17110;52.602;12.998;2024-03-29T19:03:56;12.70;99.90
30300;DHT22;17110;52.602;12.998;2024-03-29T19:08:56;12.70;99.90
30300;DHT22;17110;52.602;12.998;2024-03-29T19:13:58;12.70;99.90
30300;DHT22;17110;52.602;12.998;2024-03-29T19:18:59;12.70;99.90
30300;DHT22;17110;52.602;12.998;2024-03-29T19:23:59;12.80;99.90
30300;DHT22;17110;52.602;12.998;2024-03-29T19:29:01;12.70;99.90
30300;DHT22;17110;52.602;12.998;2024-03-29T19:34:02;12.60;99.90
30300;DHT22;17110;52.602;12.998;2024-03-29T19:39:03;12.60;99.90
30300;DHT22;17110;52.602;12.998;2024-03-29T19:44:05;12.50;99.90
30300;DHT22;17110;52.602;12.998;2024-03-29T19:49:06;12.40;99.90
30300;DHT22;17110;52.602;12.998;2024-03-29T19:54:06;12.30;99.90
30300;DHT22;17110;52.602;12.998;2024-03-29T19:59:08;12.10;99.90
30300;DHT22;17110;52.602;12.998;2024-03-29T20:04:09;12.00;99.90
30300;DHT22;17110;52.602;12.998;2024-03-29T20:09:10;12.00;99.90
30300;DHT22;17110;52.602;12.998;2024-03-29T20:14:12;11.90;99.90
30300;DHT22;17110;52.602;12.998;2024-03-29T20:19:12;11.90;99.90
30300;DHT22;17110;52.602;12.998;2024-03-29T20:24:13;11.90;99.90
30300;DHT22;17110;52.602;12.998;2024-03-29T20:29:15;11.80;99.90
30300;DHT22;17110;52.602;12.998;2024-03-29T20:34:15;11.80;99.90
30300;DHT22;17110;52.602;12.998;2024-03-29T20:39:16;11.80;99.90
30300;DHT22;17110;52.602;12.998;2024-03-29T20:44:18;11.90;99.90
30300;DHT22;17110;52.602;12.998;2024-03-29T20:49:18;11.80;99.90
30300;DHT22;17110;52.602;12.998;2024-03-29T20:54:19;11.70;99.90
30300;DHT22;17110;52.602;12.998;2024-03-29T20:59:21;11.70;99.90
30300;DHT22;17110;52.602;12.998;2024-03-29T21:04:22;11.70;99.90
30300;DHT22;17110;52.602;12.998;2024-03-29T21:09:22;11.70;99.90
30300;DHT22;17110;52.602;12.998;2024-03-29T21:14:24;11.60;99.90
30300;DHT22;17110;52.602;12.998;2024-03-29T21:19:25;11.40;99.90
30300;DHT22;17110;52.602;12.998;2024-03-29T21:24:25;11.40;99.90
30300;DHT22;17110;52.602;12.998;2024-03-29T21:29:27;11.40;99.90
30300;DHT22;17110;52.602;12.998;2024-03-29T21:34:28;11.30;99.90
30300;DHT22;17110;52.602;12.998;2024-03-29T21:39:29;11.20;99.90
30300;DHT22;17110;52.602;12.998;2024-03-29T21:44:30;11.10;99.90
30300;DHT22;17110;52.602;12.998;2024-03-29T21:49:31;11.10;99.90
30300;DHT22;17110;52.602;12.998;2024-03-29T21:54:32;11.00;99.90
30300;DHT22;17110;52.602;12.998;2024-03-29T21:59:34;10.90;99.90
30300;DHT22;17110;52.602;12.998;2024-03-29T22:04:34;10.80;99.90
30300;DHT22;17110;52.602;12.998;2024-03-29T22:09:35;10.70;99.90
30300;DHT22;17110;52.602;12.998;2024-03-29T22:14:37;10.60;99.90
30300;DHT22;17110;52.602;12.998;2024-03-29T22:19:38;10.60;99.90
30300;DHT22;17110;52.602;12.998;2024-03-29T22:24:38;10.50;99.90
30300;DHT22;17110;52.602;12.998;2024-03-29T22:29:40;10.50;99.90
30300;DHT22;17110;52.602;12.998;2024-03-29T22:34:41;10.30;99.90
30300;DHT22;17110;52.602;12.998;2024-03-29T22:39:41;10.20;99.90
30300;DHT22;17110;52.602;12.998;2024-03-29T22:44:43;10.20;99.90
30300;DHT22;17110;52.602;12.998;2024-03-29T22:49:44;10.10;99.90
30300;DHT22;17110;52.602;12.998;2024-03-29T22:54:45;10.10;99.90
30300;DHT22;17110;52.602;12.998;2024-03-29T22:59:47;10.00;99.90
30300;DHT22;17110;52.602;12.998;2024-03-29T23:04:47;10.00;99.90
30300;DHT22;17110;52.602;12.998;2024-03-29T23:09:48;9.90;99.90
30300;DHT22;17110;52.602;12.998;2024-03-29T23:14:50;9.90;99.90
30300;DHT22;17110;52.602;12.998;2024-03-29T23:19:51;10.00;99.90
30300;DHT22;17110;52.602;12.998;2024-03-29T23:24:52;10.10;99.90
30300;DHT22;17110;52.602;12.998;2024-03-29T23:29:55;10.20;99.90
30300;DHT22;17110;52.602;12.998;2024-03-29T23:34:56;10.30;99.90
30300;DHT22;17110;52.602;12.998;2024-03-29T23:39:56;10.40;99.90
30300;DHT22;17110;52.602;12.998;2024-03-29T23:44:58;10.50;99.90
30300;DHT22;17110;52.602;12.998;2024-03-29T23:49:59;10.50;99.90
30300;DHT22;17110;52.602;12.998;2024-03-29T23:55:01;10.50;99.90
